sensor_id;sensor_type;location;lat;lon;timestamp;P1;durP1;ratioP1;P2;durP2;ratioP2
37715;SDS011;23562;50.540;12.504;2024-01-15T00:01:34;42.40;;;14.95;;
37715;SDS011;23562;50.540;12.504;2024-01-15T00:04:00;33.70;;;13.23;;
37715;SDS011;23562;50.540;12.504;2024-01-15T00:06:25;32.42;;;13.30;;
37715;SDS011;23562;50.540;12.504;2024-01-15T00:08:51;36.08;;;13.65;;
37715;SDS011;23562;50.540;12.504;2024-01-15T00:11:17;38.55;;;14.38;;
37715;SDS011;23562;50.540;12.504;2024-01-15T00:13:42;38.78;;;14.18;;
37715;SDS011;23562;50.540;12.504;2024-01-15T00:16:07;39.95;;;15.02;;
37715;SDS011;23562;50.540;12.504;2024-01-15T00:18:32;41.72;;;14.55;;
37715;SDS011;23562;50.540;12.504;2024-01-15T00:20:58;36.67;;;14.70;;
37715;SDS011;23562;50.540;12.504;2024-01-15T00:23:23;45.87;;;15.77;;
37715;SDS011;23562;50.540;12.504;2024-01-15T00:25:48;39.35;;;14.07;;
37715;SDS011;23562;50.540;12.504;2024-01-15T00:28:13;36.63;;;15.32;;
37715;SDS011;23562;50.540;12.504;2024-01-15T00:30:38;40.93;;;15.17;;
37715;SDS011;23562;50.540;12.504;2024-01-15T00:33:03;38.33;;;14.80;;
37715;SDS011;23562;50.540;12.504;2024-01-15T00:35:29;40.53;;;14.40;;
37715;SDS011;23562;50.540;12.504;2024-01-15T00:37:54;40.53;;;15.40;;
37715;SDS011;23562;50.540;12.504;2024-01-15T00:40:19;35.17;;;13.85;;
37715;SDS011;23562;50.540;12.504;2024-01-15T00:42:45;42.75;;;15.23;;
37715;SDS011;23562;50.540;12.504;2024-01-15T00:45:10;41.20;;;16.08;;
37715;SDS011;23562;50.540;12.504;2024-01-15T00:47:35;39.67;;;15.77;;
37715;SDS011;23562;50.540;12.504;2024-01-15T00:50:00;42.07;;;15.47;;
37715;SDS011;23562;50.540;12.504;2024-01-15T00:52:25;42.03;;;15.27;;
37715;SDS011;23562;50.540;12.504;2024-01-15T00:54:51;38.10;;;14.77;;
37715;SDS011;23562;50.540;12.504;2024-01-15T00:57:16;38.57;;;15.07;;
37715;SDS011;23562;50.540;12.504;2024-01-15T00:59:41;36.83;;;13.80;;
37715;SDS011;23562;50.540;12.504;2024-01-15T01:02:06;35.20;;;14.50;;
37715;SDS011;23562;50.540;12.504;2024-01-15T01:04:31;39.95;;;15.82;;
37715;SDS011;23562;50.540;12.504;2024-01-15T01:06:56;38.97;;;15.00;;
37715;SDS011;23562;50.540;12.504;2024-01-15T01:09:21;39.30;;;14.68;;
37715;SDS011;23562;50.540;12.504;2024-01-15T01:11:47;39.88;;;15.27;;
37715;SDS011;23562;50.540;12.504;2024-01-15T01:14:12;40.83;;;14.88;;
37715;SDS011;23562;50.540;12.504;2024-01-15T01:16:37;35.10;;;14.27;;
37715;SDS011;23562;50.540;12.504;2024-01-15T01:19:04;39.13;;;14.93;;
37715;SDS011;23562;50.540;12.504;2024-01-15T01:21:29;36.53;;;15.10;;
37715;SDS011;23562;50.540;12.504;2024-01-15T01:23:54;39.38;;;14.98;;
37715;SDS011;23562;50.540;12.504;2024-01-15T01:26:19;38.13;;;15.93;;
37715;SDS011;23562;50.540;12.504;2024-01-15T01:28:44;39.45;;;15.27;;
37715;SDS011;23562;50.540;12.504;2024-01-15T01:31:09;43.03;;;15.07;;
37715;SDS011;23562;50.540;12.504;2024-01-15T01:33:35;37.83;;;14.67;;
37715;SDS011;23562;50.540;12.504;2024-01-15T01:36:00;37.95;;;14.57;;
37715;SDS011;23562;50.540;12.504;2024-01-15T01:38:25;37.55;;;16.10;;
37715;SDS011;23562;50.540;12.504;2024-01-15T01:40:50;38.50;;;14.88;;
37715;SDS011;23562;50.540;12.504;2024-01-15T01:43:15;42.05;;;15.52;;
37715;SDS011;23562;50.540;12.504;2024-01-15T01:45:40;37.88;;;15.55;;
37715;SDS011;23562;50.540;12.504;2024-01-15T01:48:05;41.20;;;16.20;;
37715;SDS011;23562;50.540;12.504;2024-01-15T01:50:31;43.58;;;17.23;;
37715;SDS011;23562;50.540;12.504;2024-01-15T01:52:56;43.67;;;17.23;;
37715;SDS011;23562;50.540;12.504;2024-01-15T01:55:21;43.60;;;16.87;;
37715;SDS011;23562;50.540;12.504;2024-01-15T01:57:49;45.83;;;18.25;;
37715;SDS011;23562;50.540;12.504;2024-01-15T02:00:14;47.55;;;17.98;;
37715;SDS011;23562;50.540;12.504;2024-01-15T02:02:40;48.42;;;17.38;;
37715;SDS011;23562;50.540;12.504;2024-01-15T02:05:05;53.05;;;18.60;;
37715;SDS011;23562;50.540;12.504;2024-01-15T02:07:31;49.58;;;18.27;;
37715;SDS011;23562;50.540;12.504;2024-01-15T02:09:57;50.95;;;17.83;;
37715;SDS011;23562;50.540;12.504;2024-01-15T02:12:22;46.58;;;18.05;;
37715;SDS011;23562;50.540;12.504;2024-01-15T02:14:47;59.58;;;21.10;;
37715;SDS011;23562;50.540;12.504;2024-01-15T02:17:12;54.33;;;19.77;;
37715;SDS011;23562;50.540;12.504;2024-01-15T02:19:37;47.40;;;18.73;;
37715;SDS011;23562;50.540;12.504;2024-01-15T02:22:04;50.78;;;17.65;;
37715;SDS011;23562;50.540;12.504;2024-01-15T02:24:29;54.10;;;19.38;;
37715;SDS011;23562;50.540;12.504;2024-01-15T02:26:54;54.08;;;20.23;;
37715;SDS011;23562;50.540;12.504;2024-01-15T02:29:19;59.33;;;20.23;;
37715;SDS011;23562;50.540;12.504;2024-01-15T02:31:45;59.20;;;19.60;;
37715;SDS011;23562;50.540;12.504;2024-01-15T02:34:10;61.55;;;21.15;;
37715;SDS011;23562;50.540;12.504;2024-01-15T02:36:35;61.72;;;19.52;;
37715;SDS011;23562;50.540;12.504;2024-01-15T02:39:00;61.72;;;21.15;;
37715;SDS011;23562;50.540;12.504;2024-01-15T02:41:25;62.45;;;20.98;;
37715;SDS011;23562;50.540;12.504;2024-01-15T02:43:50;62.13;;;23.27;;
37715;SDS011;23562;50.540;12.504;2024-01-15T02:46:15;60.28;;;19.92;;
37715;SDS011;23562;50.540;12.504;2024-01-15T02:48:41;62.53;;;21.63;;
37715;SDS011;23562;50.540;12.504;2024-01-15T02:51:06;65.33;;;20.63;;
37715;SDS011;23562;50.540;12.504;2024-01-15T02:53:31;59.05;;;20.52;;
37715;SDS011;23562;50.540;12.504;2024-01-15T02:55:56;63.38;;;21.08;;
37715;SDS011;23562;50.540;12.504;2024-01-15T02:58:22;64.17;;;21.17;;
37715;SDS011;23562;50.540;12.504;2024-01-15T03:00:47;54.45;;;20.10;;
37715;SDS011;23562;50.540;12.504;2024-01-15T03:03:12;62.13;;;22.15;;
37715;SDS011;23562;50.540;12.504;2024-01-15T03:05:37;62.25;;;20.10;;
37715;SDS011;23562;50.540;12.504;2024-01-15T03:08:02;59.22;;;19.83;;
37715;SDS011;23562;50.540;12.504;2024-01-15T03:10:27;64.70;;;22.30;;
37715;SDS011;23562;50.540;12.504;2024-01-15T03:12:52;62.55;;;20.60;;
37715;SDS011;23562;50.540;12.504;2024-01-15T03:15:18;63.03;;;21.42;;
37715;SDS011;23562;50.540;12.504;2024-01-15T03:17:43;62.53;;;22.10;;
37715;SDS011;23562;50.540;12.504;2024-01-15T03:20:08;66.73;;;20.97;;
37715;SDS011;23562;50.540;12.504;2024-01-15T03:22:34;66.75;;;21.17;;
37715;SDS011;23562;50.540;12.504;2024-01-15T03:24:59;68.60;;;22.60;;
37715;SDS011;23562;50.540;12.504;2024-01-15T03:27:24;59.07;;;21.50;;
37715;SDS011;23562;50.540;12.504;2024-01-15T03:29:50;76.22;;;22.20;;
37715;SDS011;23562;50.540;12.504;2024-01-15T03:32:16;65.77;;;21.10;;
37715;SDS011;23562;50.540;12.504;2024-01-15T03:34:41;62.87;;;20.93;;
37715;SDS011;23562;50.540;12.504;2024-01-15T03:37:06;68.40;;;21.38;;
37715;SDS011;23562;50.540;12.504;2024-01-15T03:39:31;63.65;;;21.30;;
37715;SDS011;23562;50.540;12.504;2024-01-15T03:41:56;58.83;;;19.93;;
37715;SDS011;23562;50.540;12.504;2024-01-15T03:44:21;72.57;;;22.45;;
37715;SDS011;23562;50.540;12.504;2024-01-15T03:46:46;67.60;;;20.63;;
37715;SDS011;23562;50.540;12.504;2024-01-15T03:49:12;56.08;;;20.48;;
37715;SDS011;23562;50.540;12.504;2024-01-15T03:51:37;61.78;;;19.85;;
37715;SDS011;23562;50.540;12.504;2024-01-15T03:54:02;66.45;;;22.65;;
37715;SDS011;23562;50.540;12.504;2024-01-15T03:56:27;58.97;;;19.63;;
37715;SDS011;23562;50.540;12.504;2024-01-15T03:58:52;63.37;;;20.93;;
37715;SDS011;23562;50.540;12.504;2024-01-15T04:01:17;70.65;;;21.05;;
37715;SDS011;23562;50.540;12.504;2024-01-15T04:03:42;67.80;;;21.52;;
37715;SDS011;23562;50.540;12.504;2024-01-15T04:06:08;64.25;;;21.13;;
37715;SDS011;23562;50.540;12.504;2024-01-15T04:08:33;65.95;;;20.58;;
37715;SDS011;23562;50.540;12.504;2024-01-15T04:10:58;56.97;;;20.50;;
37715;SDS011;23562;50.540;12.504;2024-01-15T04:13:23;58.47;;;20.10;;
37715;SDS011;23562;50.540;12.504;2024-01-15T04:15:48;64.97;;;20.38;;
37715;SDS011;23562;50.540;12.504;2024-01-15T04:18:15;71.80;;;20.60;;
37715;SDS011;23562;50.540;12.504;2024-01-15T04:20:40;67.57;;;22.73;;
37715;SDS011;23562;50.540;12.504;2024-01-15T04:23:05;58.73;;;20.63;;
37715;SDS011;23562;50.540;12.504;2024-01-15T04:25:31;59.90;;;21.83;;
37715;SDS011;23562;50.540;12.504;2024-01-15T04:27:56;60.80;;;19.17;;
37715;SDS011;23562;50.540;12.504;2024-01-15T04:30:21;71.97;;;19.67;;
37715;SDS011;23562;50.540;12.504;2024-01-15T04:32:46;63.47;;;20.33;;
37715;SDS011;23562;50.540;12.504;2024-01-15T04:35:11;63.15;;;21.42;;
37715;SDS011;23562;50.540;12.504;2024-01-15T04:37:37;66.35;;;20.88;;
37715;SDS011;23562;50.540;12.504;2024-01-15T04:40:02;57.38;;;20.00;;
37715;SDS011;23562;50.540;12.504;2024-01-15T04:42:28;57.33;;;18.83;;
37715;SDS011;23562;50.540;12.504;2024-01-15T04:44:54;67.47;;;20.98;;
37715;SDS011;23562;50.540;12.504;2024-01-15T04:47:19;56.17;;;18.42;;
37715;SDS011;23562;50.540;12.504;2024-01-15T04:49:44;59.35;;;20.42;;
37715;SDS011;23562;50.540;12.504;2024-01-15T04:52:09;54.70;;;19.42;;
37715;SDS011;23562;50.540;12.504;2024-01-15T04:54:35;57.97;;;20.10;;
37715;SDS011;23562;50.540;12.504;2024-01-15T04:57:00;59.40;;;17.47;;
37715;SDS011;23562;50.540;12.504;2024-01-15T04:59:25;56.03;;;18.40;;
37715;SDS011;23562;50.540;12.504;2024-01-15T05:01:50;53.00;;;18.17;;
37715;SDS011;23562;50.540;12.504;2024-01-15T05:04:15;49.67;;;17.27;;
37715;SDS011;23562;50.540;12.504;2024-01-15T05:06:41;51.38;;;17.27;;
37715;SDS011;23562;50.540;12.504;2024-01-15T05:09:06;55.92;;;17.85;;
37715;SDS011;23562;50.540;12.504;2024-01-15T05:11:31;59.45;;;17.92;;
37715;SDS011;23562;50.540;12.504;2024-01-15T05:13:57;55.65;;;18.52;;
37715;SDS011;23562;50.540;12.504;2024-01-15T05:16:22;55.30;;;18.45;;
37715;SDS011;23562;50.540;12.504;2024-01-15T05:18:47;62.60;;;19.70;;
37715;SDS011;23562;50.540;12.504;2024-01-15T05:21:12;53.78;;;17.67;;
37715;SDS011;23562;50.540;12.504;2024-01-15T05:23:37;55.80;;;19.02;;
37715;SDS011;23562;50.540;12.504;2024-01-15T05:26:03;61.55;;;19.05;;
37715;SDS011;23562;50.540;12.504;2024-01-15T05:28:28;51.33;;;17.48;;
37715;SDS011;23562;50.540;12.504;2024-01-15T05:30:53;57.00;;;19.48;;
37715;SDS011;23562;50.540;12.504;2024-01-15T05:33:20;57.80;;;19.52;;
37715;SDS011;23562;50.540;12.504;2024-01-15T05:35:45;49.35;;;17.60;;
37715;SDS011;23562;50.540;12.504;2024-01-15T05:38:11;52.78;;;18.17;;
37715;SDS011;23562;50.540;12.504;2024-01-15T05:40:36;56.78;;;18.20;;
37715;SDS011;23562;50.540;12.504;2024-01-15T05:43:01;56.30;;;17.52;;
37715;SDS011;23562;50.540;12.504;2024-01-15T05:45:26;55.40;;;18.33;;
37715;SDS011;23562;50.540;12.504;2024-01-15T05:47:51;55.17;;;18.45;;
37715;SDS011;23562;50.540;12.504;2024-01-15T05:50:17;52.20;;;18.08;;
37715;SDS011;23562;50.540;12.504;2024-01-15T05:52:42;57.03;;;19.37;;
37715;SDS011;23562;50.540;12.504;2024-01-15T05:55:07;49.37;;;18.13;;
37715;SDS011;23562;50.540;12.504;2024-01-15T05:57:32;57.40;;;18.88;;
37715;SDS011;23562;50.540;12.504;2024-01-15T05:59:57;48.33;;;18.13;;
37715;SDS011;23562;50.540;12.504;2024-01-15T06:02:22;54.55;;;18.08;;
37715;SDS011;23562;50.540;12.504;2024-01-15T06:04:48;49.30;;;17.43;;
37715;SDS011;23562;50.540;12.504;2024-01-15T06:07:13;54.60;;;17.17;;
37715;SDS011;23562;50.540;12.504;2024-01-15T06:09:38;48.28;;;17.55;;
37715;SDS011;23562;50.540;12.504;2024-01-15T06:12:03;59.03;;;18.58;;
37715;SDS011;23562;50.540;12.504;2024-01-15T06:14:28;51.83;;;18.25;;
37715;SDS011;23562;50.540;12.504;2024-01-15T06:16:54;48.10;;;16.30;;
37715;SDS011;23562;50.540;12.504;2024-01-15T06:19:19;54.70;;;18.33;;
37715;SDS011;23562;50.540;12.504;2024-01-15T06:21:44;53.27;;;18.20;;
37715;SDS011;23562;50.540;12.504;2024-01-15T06:24:09;49.40;;;17.63;;
37715;SDS011;23562;50.540;12.504;2024-01-15T06:26:35;46.03;;;17.27;;
37715;SDS011;23562;50.540;12.504;2024-01-15T06:29:00;50.40;;;18.60;;
37715;SDS011;23562;50.540;12.504;2024-01-15T06:31:25;49.95;;;17.98;;
37715;SDS011;23562;50.540;12.504;2024-01-15T06:33:50;48.22;;;17.58;;
37715;SDS011;23562;50.540;12.504;2024-01-15T06:36:15;45.42;;;16.77;;
37715;SDS011;23562;50.540;12.504;2024-01-15T06:38:41;53.28;;;18.10;;
37715;SDS011;23562;50.540;12.504;2024-01-15T06:41:06;47.43;;;16.30;;
37715;SDS011;23562;50.540;12.504;2024-01-15T06:43:31;53.08;;;19.45;;
37715;SDS011;23562;50.540;12.504;2024-01-15T06:45:56;43.90;;;16.38;;
37715;SDS011;23562;50.540;12.504;2024-01-15T06:48:21;45.03;;;18.43;;
37715;SDS011;23562;50.540;12.504;2024-01-15T06:50:47;44.83;;;16.57;;
37715;SDS011;23562;50.540;12.504;2024-01-15T06:53:12;44.45;;;16.17;;
37715;SDS011;23562;50.540;12.504;2024-01-15T06:55:38;48.10;;;16.92;;
37715;SDS011;23562;50.540;12.504;2024-01-15T06:58:03;41.85;;;15.73;;
37715;SDS011;23562;50.540;12.504;2024-01-15T07:00:28;43.40;;;15.25;;
37715;SDS011;23562;50.540;12.504;2024-01-15T07:02:53;47.15;;;16.75;;
37715;SDS011;23562;50.540;12.504;2024-01-15T07:05:20;43.33;;;15.43;;
37715;SDS011;23562;50.540;12.504;2024-01-15T07:07:45;40.17;;;15.40;;
37715;SDS011;23562;50.540;12.504;2024-01-15T07:10:10;35.73;;;13.93;;
37715;SDS011;23562;50.540;12.504;2024-01-15T07:12:35;35.77;;;14.00;;
37715;SDS011;23562;50.540;12.504;2024-01-15T07:15:00;39.63;;;14.32;;
37715;SDS011;23562;50.540;12.504;2024-01-15T07:17:26;43.25;;;14.70;;
37715;SDS011;23562;50.540;12.504;2024-01-15T07:19:52;38.90;;;15.23;;
37715;SDS011;23562;50.540;12.504;2024-01-15T07:22:17;35.30;;;14.10;;
37715;SDS011;23562;50.540;12.504;2024-01-15T07:24:42;34.53;;;14.53;;
37715;SDS011;23562;50.540;12.504;2024-01-15T07:27:07;36.78;;;13.95;;
37715;SDS011;23562;50.540;12.504;2024-01-15T07:29:33;42.95;;;13.63;;
37715;SDS011;23562;50.540;12.504;2024-01-15T07:32:01;38.97;;;13.85;;
37715;SDS011;23562;50.540;12.504;2024-01-15T07:34:26;35.78;;;14.43;;
37715;SDS011;23562;50.540;12.504;2024-01-15T07:36:51;36.53;;;13.70;;
37715;SDS011;23562;50.540;12.504;2024-01-15T07:39:16;39.43;;;13.13;;
37715;SDS011;23562;50.540;12.504;2024-01-15T07:41:41;35.75;;;14.55;;
37715;SDS011;23562;50.540;12.504;2024-01-15T07:44:06;33.97;;;12.82;;
37715;SDS011;23562;50.540;12.504;2024-01-15T07:46:32;31.50;;;13.07;;
37715;SDS011;23562;50.540;12.504;2024-01-15T07:48:57;34.88;;;13.52;;
37715;SDS011;23562;50.540;12.504;2024-01-15T07:51:23;36.20;;;14.23;;
37715;SDS011;23562;50.540;12.504;2024-01-15T07:53:48;39.90;;;14.32;;
37715;SDS011;23562;50.540;12.504;2024-01-15T07:56:13;34.55;;;13.80;;
37715;SDS011;23562;50.540;12.504;2024-01-15T07:58:38;39.90;;;14.32;;
37715;SDS011;23562;50.540;12.504;2024-01-15T08:01:03;33.60;;;13.77;;
37715;SDS011;23562;50.540;12.504;2024-01-15T08:03:28;35.92;;;13.25;;
37715;SDS011;23562;50.540;12.504;2024-01-15T08:05:53;34.08;;;13.23;;
37715;SDS011;23562;50.540;12.504;2024-01-15T08:08:19;33.28;;;14.07;;
37715;SDS011;23562;50.540;12.504;2024-01-15T08:10:46;36.95;;;14.45;;
37715;SDS011;23562;50.540;12.504;2024-01-15T08:13:11;38.37;;;14.37;;
37715;SDS011;23562;50.540;12.504;2024-01-15T08:15:36;39.70;;;14.00;;
37715;SDS011;23562;50.540;12.504;2024-01-15T08:18:01;37.47;;;13.73;;
37715;SDS011;23562;50.540;12.504;2024-01-15T08:20:27;36.05;;;13.60;;
37715;SDS011;23562;50.540;12.504;2024-01-15T08:22:52;32.67;;;13.70;;
37715;SDS011;23562;50.540;12.504;2024-01-15T08:25:17;33.70;;;12.45;;
37715;SDS011;23562;50.540;12.504;2024-01-15T08:27:42;35.00;;;12.43;;
37715;SDS011;23562;50.540;12.504;2024-01-15T08:30:07;34.60;;;12.87;;
37715;SDS011;23562;50.540;12.504;2024-01-15T08:32:33;35.22;;;14.18;;
37715;SDS011;23562;50.540;12.504;2024-01-15T08:35:01;33.72;;;12.32;;
37715;SDS011;23562;50.540;12.504;2024-01-15T08:37:28;31.15;;;12.10;;
37715;SDS011;23562;50.540;12.504;2024-01-15T08:39:53;28.60;;;12.10;;
37715;SDS011;23562;50.540;12.504;2024-01-15T08:42:18;30.20;;;11.90;;
37715;SDS011;23562;50.540;12.504;2024-01-15T08:44:44;31.38;;;12.07;;
37715;SDS011;23562;50.540;12.504;2024-01-15T08:47:09;27.35;;;12.07;;
37715;SDS011;23562;50.540;12.504;2024-01-15T08:49:34;34.50;;;12.50;;
37715;SDS011;23562;50.540;12.504;2024-01-15T08:51:59;35.27;;;13.60;;
37715;SDS011;23562;50.540;12.504;2024-01-15T08:54:24;27.83;;;10.98;;
37715;SDS011;23562;50.540;12.504;2024-01-15T08:56:49;33.63;;;11.70;;
37715;SDS011;23562;50.540;12.504;2024-01-15T08:59:14;28.27;;;11.80;;
37715;SDS011;23562;50.540;12.504;2024-01-15T09:01:39;29.27;;;12.02;;
37715;SDS011;23562;50.540;12.504;2024-01-15T09:04:04;31.02;;;12.63;;
37715;SDS011;23562;50.540;12.504;2024-01-15T09:06:30;28.77;;;11.27;;
37715;SDS011;23562;50.540;12.504;2024-01-15T09:08:55;31.15;;;12.45;;
37715;SDS011;23562;50.540;12.504;2024-01-15T09:11:20;35.67;;;11.57;;
37715;SDS011;23562;50.540;12.504;2024-01-15T09:13:45;30.05;;;11.77;;
37715;SDS011;23562;50.540;12.504;2024-01-15T09:16:10;32.80;;;12.40;;
37715;SDS011;23562;50.540;12.504;2024-01-15T09:18:36;27.23;;;11.98;;
37715;SDS011;23562;50.540;12.504;2024-01-15T09:21:01;28.10;;;11.82;;
37715;SDS011;23562;50.540;12.504;2024-01-15T09:23:27;25.75;;;11.38;;
37715;SDS011;23562;50.540;12.504;2024-01-15T09:25:52;29.08;;;11.30;;
37715;SDS011;23562;50.540;12.504;2024-01-15T09:28:17;28.55;;;10.80;;
37715;SDS011;23562;50.540;12.504;2024-01-15T09:30:42;29.17;;;12.30;;
37715;SDS011;23562;50.540;12.504;2024-01-15T09:33:09;24.50;;;10.30;;
37715;SDS011;23562;50.540;12.504;2024-01-15T09:35:35;24.15;;;10.65;;
37715;SDS011;23562;50.540;12.504;2024-01-15T09:38:00;28.98;;;11.60;;
37715;SDS011;23562;50.540;12.504;2024-01-15T09:40:25;26.90;;;11.40;;
37715;SDS011;23562;50.540;12.504;2024-01-15T09:42:53;26.75;;;10.85;;
37715;SDS011;23562;50.540;12.504;2024-01-15T09:45:18;28.52;;;10.85;;
37715;SDS011;23562;50.540;12.504;2024-01-15T09:47:43;24.77;;;10.43;;
37715;SDS011;23562;50.540;12.504;2024-01-15T09:50:08;26.00;;;10.27;;
37715;SDS011;23562;50.540;12.504;2024-01-15T09:52:34;27.02;;;10.50;;
37715;SDS011;23562;50.540;12.504;2024-01-15T09:54:59;27.83;;;10.73;;
37715;SDS011;23562;50.540;12.504;2024-01-15T09:57:26;19.90;;;8.57;;
37715;SDS011;23562;50.540;12.504;2024-01-15T09:59:51;25.77;;;11.10;;
37715;SDS011;23562;50.540;12.504;2024-01-15T10:02:18;27.23;;;11.40;;
37715;SDS011;23562;50.540;12.504;2024-01-15T10:04:43;25.55;;;11.32;;
37715;SDS011;23562;50.540;12.504;2024-01-15T10:07:09;28.90;;;11.27;;
37715;SDS011;23562;50.540;12.504;2024-01-15T10:09:34;28.23;;;11.35;;
37715;SDS011;23562;50.540;12.504;2024-01-15T10:11:59;26.88;;;10.57;;
37715;SDS011;23562;50.540;12.504;2024-01-15T10:14:25;29.73;;;10.53;;
37715;SDS011;23562;50.540;12.504;2024-01-15T10:16:50;28.15;;;9.80;;
37715;SDS011;23562;50.540;12.504;2024-01-15T10:19:15;26.95;;;10.30;;
37715;SDS011;23562;50.540;12.504;2024-01-15T10:21:40;31.05;;;11.05;;
37715;SDS011;23562;50.540;12.504;2024-01-15T10:24:05;27.45;;;10.82;;
37715;SDS011;23562;50.540;12.504;2024-01-15T10:26:31;28.10;;;12.65;;
37715;SDS011;23562;50.540;12.504;2024-01-15T10:29:00;25.50;;;10.70;;
37715;SDS011;23562;50.540;12.504;2024-01-15T10:31:25;23.05;;;9.57;;
37715;SDS011;23562;50.540;12.504;2024-01-15T10:33:51;27.13;;;10.43;;
37715;SDS011;23562;50.540;12.504;2024-01-15T10:36:16;29.60;;;10.70;;
37715;SDS011;23562;50.540;12.504;2024-01-15T10:38:45;25.52;;;10.13;;
37715;SDS011;23562;50.540;12.504;2024-01-15T10:41:11;26.00;;;10.18;;
37715;SDS011;23562;50.540;12.504;2024-01-15T10:43:36;25.47;;;9.83;;
37715;SDS011;23562;50.540;12.504;2024-01-15T10:46:01;22.45;;;9.88;;
37715;SDS011;23562;50.540;12.504;2024-01-15T10:48:27;22.65;;;9.20;;
37715;SDS011;23562;50.540;12.504;2024-01-15T10:50:53;23.42;;;9.40;;
37715;SDS011;23562;50.540;12.504;2024-01-15T10:53:18;31.30;;;11.82;;
37715;SDS011;23562;50.540;12.504;2024-01-15T10:55:44;29.57;;;11.07;;
37715;SDS011;23562;50.540;12.504;2024-01-15T10:58:11;26.27;;;9.93;;
37715;SDS011;23562;50.540;12.504;2024-01-15T11:00:36;22.50;;;9.43;;
37715;SDS011;23562;50.540;12.504;2024-01-15T11:03:05;24.05;;;10.68;;
37715;SDS011;23562;50.540;12.504;2024-01-15T11:05:34;23.00;;;8.80;;
37715;SDS011;23562;50.540;12.504;2024-01-15T11:07:59;23.65;;;9.10;;
37715;SDS011;23562;50.540;12.504;2024-01-15T11:10:42;24.55;;;9.18;;
37715;SDS011;23562;50.540;12.504;2024-01-15T11:13:08;21.92;;;9.10;;
37715;SDS011;23562;50.540;12.504;2024-01-15T11:15:33;25.45;;;9.80;;
37715;SDS011;23562;50.540;12.504;2024-01-15T11:18:18;24.60;;;9.90;;
37715;SDS011;23562;50.540;12.504;2024-01-15T11:26:26;26.50;;;9.90;;
37715;SDS011;23562;50.540;12.504;2024-01-15T11:28:52;21.48;;;9.75;;
37715;SDS011;23562;50.540;12.504;2024-01-15T11:31:17;23.85;;;9.63;;
37715;SDS011;23562;50.540;12.504;2024-01-15T11:33:48;22.52;;;9.98;;
37715;SDS011;23562;50.540;12.504;2024-01-15T11:36:14;21.63;;;9.63;;
37715;SDS011;23562;50.540;12.504;2024-01-15T11:38:39;22.33;;;9.35;;
37715;SDS011;23562;50.540;12.504;2024-01-15T11:41:13;24.65;;;9.57;;
37715;SDS011;23562;50.540;12.504;2024-01-15T11:43:39;21.60;;;10.05;;
37715;SDS011;23562;50.540;12.504;2024-01-15T11:46:04;23.05;;;8.98;;
37715;SDS011;23562;50.540;12.504;2024-01-15T11:48:34;21.20;;;9.60;;
37715;SDS011;23562;50.540;12.504;2024-01-15T11:51:04;22.85;;;9.45;;
37715;SDS011;23562;50.540;12.504;2024-01-15T11:53:32;21.33;;;9.03;;
37715;SDS011;23562;50.540;12.504;2024-01-15T11:55:59;23.42;;;9.10;;
37715;SDS011;23562;50.540;12.504;2024-01-15T11:58:26;24.20;;;10.35;;
37715;SDS011;23562;50.540;12.504;2024-01-15T12:00:51;20.20;;;9.88;;
37715;SDS011;23562;50.540;12.504;2024-01-15T12:03:17;23.48;;;9.50;;
37715;SDS011;23562;50.540;12.504;2024-01-15T12:05:42;23.00;;;9.93;;
37715;SDS011;23562;50.540;12.504;2024-01-15T12:08:07;23.85;;;9.88;;
37715;SDS011;23562;50.540;12.504;2024-01-15T12:10:39;22.88;;;9.15;;
37715;SDS011;23562;50.540;12.504;2024-01-15T12:13:14;21.30;;;9.77;;
37715;SDS011;23562;50.540;12.504;2024-01-15T12:15:40;20.15;;;9.07;;
37715;SDS011;23562;50.540;12.504;2024-01-15T12:18:07;27.17;;;9.73;;
37715;SDS011;23562;50.540;12.504;2024-01-15T12:20:32;24.58;;;9.23;;
37715;SDS011;23562;50.540;12.504;2024-01-15T12:22:58;17.98;;;8.13;;
37715;SDS011;23562;50.540;12.504;2024-01-15T12:25:24;24.53;;;9.63;;
37715;SDS011;23562;50.540;12.504;2024-01-15T12:27:51;19.50;;;8.60;;
37715;SDS011;23562;50.540;12.504;2024-01-15T12:30:17;19.70;;;8.52;;
37715;SDS011;23562;50.540;12.504;2024-01-15T12:32:42;24.15;;;9.10;;
37715;SDS011;23562;50.540;12.504;2024-01-15T12:35:08;21.80;;;8.57;;
37715;SDS011;23562;50.540;12.504;2024-01-15T12:37:35;18.83;;;8.23;;
37715;SDS011;23562;50.540;12.504;2024-01-15T12:40:00;23.73;;;8.70;;
37715;SDS011;23562;50.540;12.504;2024-01-15T12:42:25;18.15;;;8.20;;
37715;SDS011;23562;50.540;12.504;2024-01-15T12:44:50;21.67;;;8.75;;
37715;SDS011;23562;50.540;12.504;2024-01-15T12:47:16;22.57;;;8.50;;
37715;SDS011;23562;50.540;12.504;2024-01-15T12:49:46;18.13;;;8.57;;
37715;SDS011;23562;50.540;12.504;2024-01-15T12:52:11;22.27;;;8.10;;
37715;SDS011;23562;50.540;12.504;2024-01-15T12:54:36;16.05;;;8.02;;
37715;SDS011;23562;50.540;12.504;2024-01-15T12:57:02;21.47;;;8.83;;
37715;SDS011;23562;50.540;12.504;2024-01-15T12:59:27;20.90;;;8.70;;
37715;SDS011;23562;50.540;12.504;2024-01-15T13:01:53;20.25;;;8.57;;
37715;SDS011;23562;50.540;12.504;2024-01-15T13:04:24;26.17;;;9.83;;
37715;SDS011;23562;50.540;12.504;2024-01-15T13:06:50;21.77;;;8.73;;
37715;SDS011;23562;50.540;12.504;2024-01-15T13:09:15;22.40;;;9.35;;
37715;SDS011;23562;50.540;12.504;2024-01-15T13:11:40;25.87;;;10.43;;
37715;SDS011;23562;50.540;12.504;2024-01-15T13:14:05;24.40;;;9.67;;
37715;SDS011;23562;50.540;12.504;2024-01-15T13:16:30;23.80;;;9.63;;
37715;SDS011;23562;50.540;12.504;2024-01-15T13:18:56;29.03;;;11.73;;
37715;SDS011;23562;50.540;12.504;2024-01-15T13:21:21;19.30;;;9.00;;
37715;SDS011;23562;50.540;12.504;2024-01-15T13:23:46;21.88;;;9.38;;
37715;SDS011;23562;50.540;12.504;2024-01-15T13:26:11;27.42;;;9.90;;
37715;SDS011;23562;50.540;12.504;2024-01-15T13:28:37;25.90;;;10.27;;
37715;SDS011;23562;50.540;12.504;2024-01-15T13:31:02;35.15;;;12.35;;
37715;SDS011;23562;50.540;12.504;2024-01-15T13:33:27;22.10;;;9.90;;
37715;SDS011;23562;50.540;12.504;2024-01-15T13:35:53;30.30;;;11.77;;
37715;SDS011;23562;50.540;12.504;2024-01-15T13:38:18;25.52;;;10.98;;
37715;SDS011;23562;50.540;12.504;2024-01-15T13:40:43;22.37;;;9.70;;
37715;SDS011;23562;50.540;12.504;2024-01-15T13:43:10;24.98;;;9.77;;
37715;SDS011;23562;50.540;12.504;2024-01-15T13:45:35;25.80;;;10.15;;
37715;SDS011;23562;50.540;12.504;2024-01-15T13:48:02;22.90;;;10.60;;
37715;SDS011;23562;50.540;12.504;2024-01-15T13:50:30;20.95;;;10.15;;
37715;SDS011;23562;50.540;12.504;2024-01-15T13:52:55;19.70;;;9.65;;
37715;SDS011;23562;50.540;12.504;2024-01-15T13:55:20;21.10;;;10.27;;
37715;SDS011;23562;50.540;12.504;2024-01-15T13:57:46;25.93;;;11.90;;
37715;SDS011;23562;50.540;12.504;2024-01-15T14:00:11;27.92;;;12.10;;
37715;SDS011;23562;50.540;12.504;2024-01-15T14:02:37;27.00;;;12.63;;
37715;SDS011;23562;50.540;12.504;2024-01-15T14:05:02;23.95;;;11.23;;
37715;SDS011;23562;50.540;12.504;2024-01-15T14:07:27;23.75;;;10.70;;